Terminal Aerodrome Forecast
Issued by NWS Twin Cities, MN

Home | Current Version | Previous Version | Graphics & Text | Print | Product List | Glossary On
Versions: 1 2 3 4 5 6 7 8 9 10 11 12 13 14 15 16 17
000
FTUS43 KMPX 041733
TAFSTC
TAF
KSTC 041733Z 0418/0518 04008KT P6SM FEW300
     FM050500 06004KT P6SM SCT120
     FM051200 10008KT P6SM SCT060 BKN150
     FM051500 12013KT P6SM SCT040 BKN090=

USA.gov is the U.S. government's official web portal to all federal, state and local government web resources and services.